createdAt,value
2022-10-18T00:00:02.977Z,7.90
2022-10-18T00:02:31.242Z,8.30
2022-10-18T00:04:57.920Z,9.52
2022-10-18T00:07:24.536Z,8.80
2022-10-18T00:09:51.192Z,9.55
2022-10-18T00:12:17.831Z,9.45
2022-10-18T00:14:44.437Z,9.02
2022-10-18T00:17:12.265Z,10.10
2022-10-18T00:19:39.075Z,9.23
2022-10-18T00:22:05.701Z,9.63
2022-10-18T00:24:32.455Z,8.85
2022-10-18T00:26:59.024Z,8.55
2022-10-18T00:29:25.733Z,9.20
2022-10-18T00:31:52.336Z,8.57
2022-10-18T00:34:19.029Z,9.18
2022-10-18T00:36:45.731Z,8.50
2022-10-18T00:39:18.796Z,7.78
2022-10-18T00:41:46.085Z,7.80
2022-10-18T00:44:12.666Z,7.63
2022-10-18T00:46:47.418Z,7.25
2022-10-18T00:49:17.487Z,7.78
2022-10-18T00:51:50.428Z,7.35
2022-10-18T00:54:18.168Z,7.63
2022-10-18T00:56:45.400Z,7.97
2022-10-18T00:59:14.424Z,6.88
2022-10-18T01:01:41.131Z,7.47
2022-10-18T01:04:07.863Z,7.47
2022-10-18T01:06:50.739Z,7.50
2022-10-18T01:09:28.527Z,7.22
2022-10-18T01:12:22.218Z,7.13
2022-10-18T01:15:02.545Z,7.40
2022-10-18T01:17:36.693Z,6.38
2022-10-18T01:20:12.267Z,7.53
2022-10-18T01:23:10.652Z,7.28
2022-10-18T01:25:49.374Z,7.30
2022-10-18T01:28:30.305Z,6.45
2022-10-18T01:31:01.468Z,6.82
2022-10-18T01:33:45.815Z,7.25
2022-10-18T01:36:19.759Z,7.30
2022-10-18T01:38:47.701Z,7.82
2022-10-18T01:41:15.947Z,7.30
2022-10-18T01:43:43.868Z,6.75
2022-10-18T01:46:11.833Z,7.22
2022-10-18T01:48:38.601Z,7.15
2022-10-18T01:51:05.862Z,7.20
2022-10-18T01:53:34.411Z,7.78
2022-10-18T01:56:34.202Z,7.63
2022-10-18T01:59:19.537Z,7.20
2022-10-18T02:02:25.114Z,6.75
2022-10-18T02:05:15.181Z,7.13
2022-10-18T02:08:12.037Z,7.63
2022-10-18T02:10:49.949Z,6.63
2022-10-18T02:13:22.357Z,7.00
2022-10-18T02:15:51.538Z,6.88
2022-10-18T02:18:22.760Z,7.00
2022-10-18T02:20:49.897Z,6.70
2022-10-18T02:23:20.149Z,7.35
2022-10-18T02:25:46.860Z,7.00
2022-10-18T02:28:13.887Z,7.60
2022-10-18T02:30:50.951Z,7.97
2022-10-18T02:33:21.804Z,7.63
2022-10-18T02:35:53.198Z,7.30
2022-10-18T02:38:20.421Z,7.80
2022-10-18T02:40:47.061Z,7.50
2022-10-18T02:43:14.766Z,7.30
2022-10-18T02:45:41.545Z,7.88
2022-10-18T02:48:08.242Z,7.38
2022-10-18T02:50:34.939Z,6.80
2022-10-18T02:53:01.604Z,7.45
2022-10-18T02:57:55.806Z,7.35
2022-10-18T03:00:22.439Z,7.53
2022-10-18T03:02:49.191Z,8.00
2022-10-18T03:05:15.895Z,7.95
2022-10-18T03:07:42.531Z,7.45
2022-10-18T03:10:09.297Z,7.43
2022-10-18T03:12:35.904Z,8.18
2022-10-18T03:15:02.789Z,8.40
2022-10-18T03:17:29.697Z,7.80
2022-10-18T03:19:56.600Z,7.72
2022-10-18T03:22:25.255Z,7.78
2022-10-18T03:24:51.971Z,7.75
2022-10-18T03:27:18.602Z,7.72
2022-10-18T03:29:45.305Z,7.47
2022-10-18T03:32:11.935Z,7.30
2022-10-18T03:34:38.574Z,7.00
2022-10-18T03:37:05.588Z,7.38
2022-10-18T03:39:32.371Z,7.35
2022-10-18T03:41:58.971Z,6.85
2022-10-18T03:44:25.604Z,6.85
2022-10-18T03:46:52.204Z,6.78
2022-10-18T03:49:18.812Z,7.18
2022-10-18T03:51:45.450Z,7.50
2022-10-18T03:54:12.091Z,7.40
2022-10-18T03:56:38.710Z,7.65
2022-10-18T03:59:05.426Z,7.90
2022-10-18T04:01:32.093Z,7.13
2022-10-18T04:03:58.949Z,7.80
2022-10-18T04:06:25.734Z,7.68
2022-10-18T04:08:52.402Z,7.18
2022-10-18T04:11:20.384Z,7.40
2022-10-18T04:13:49.148Z,7.40
2022-10-18T04:16:15.844Z,7.38
2022-10-18T04:18:42.870Z,6.18
2022-10-18T04:21:09.471Z,6.18
2022-10-18T04:23:38.783Z,6.70
2022-10-18T04:26:06.118Z,6.85
2022-10-18T04:28:33.634Z,6.68
2022-10-18T04:31:00.396Z,6.70
2022-10-18T04:33:27.079Z,6.88
2022-10-18T04:35:54.113Z,6.53
2022-10-18T04:38:20.913Z,6.97
2022-10-18T04:40:47.583Z,7.03
2022-10-18T04:43:14.264Z,6.82
2022-10-18T04:45:41.063Z,7.20
2022-10-18T04:48:07.845Z,6.55
2022-10-18T04:50:34.662Z,7.45
2022-10-18T04:53:01.255Z,7.32
2022-10-18T04:55:29.148Z,7.78
2022-10-18T04:57:55.834Z,7.00
2022-10-18T05:00:22.825Z,7.28
2022-10-18T05:02:49.443Z,7.65
2022-10-18T05:05:16.146Z,8.10
2022-10-18T05:07:43.191Z,7.68
2022-10-18T05:10:09.881Z,7.95
2022-10-18T05:12:36.472Z,8.52
2022-10-18T05:15:03.254Z,8.60
2022-10-18T05:17:30.056Z,8.82
2022-10-18T05:19:56.690Z,9.50
2022-10-18T05:22:23.428Z,7.25
2022-10-18T05:24:50.106Z,9.10
2022-10-18T05:27:16.764Z,8.65
2022-10-18T05:29:45.546Z,9.02
2022-10-18T05:32:13.434Z,8.07
2022-10-18T05:34:40.281Z,9.23
2022-10-18T05:37:07.269Z,9.73
2022-10-18T05:39:34.266Z,9.35
2022-10-18T05:42:01.028Z,9.48
2022-10-18T05:44:28.470Z,9.07
2022-10-18T05:46:55.267Z,9.77
2022-10-18T05:49:25.247Z,8.75
2022-10-18T05:51:51.951Z,9.18
2022-10-18T05:54:18.584Z,9.27
2022-10-18T05:56:45.284Z,10.48
2022-10-18T05:59:12.349Z,9.70
2022-10-18T06:01:40.369Z,9.98
2022-10-18T06:04:07.331Z,9.98
2022-10-18T06:06:34.270Z,10.57
2022-10-18T06:09:03.242Z,11.05
2022-10-18T06:11:31.120Z,10.30
2022-10-18T06:13:58.108Z,10.32
2022-10-18T06:16:31.251Z,10.25
2022-10-18T06:18:59.991Z,10.10
2022-10-18T06:21:29.672Z,11.55
2022-10-18T06:23:58.737Z,10.20
2022-10-18T06:26:29.149Z,11.13
2022-10-18T06:28:56.398Z,10.98
2022-10-18T06:31:23.173Z,11.35
2022-10-18T06:33:52.313Z,11.55
2022-10-18T06:36:24.233Z,10.38
2022-10-18T06:38:51.469Z,11.75
2022-10-18T06:41:19.511Z,11.40
2022-10-18T06:43:50.080Z,10.95
2022-10-18T06:46:17.079Z,11.05
2022-10-18T06:48:43.748Z,11.90
2022-10-18T06:51:13.142Z,10.35
2022-10-18T06:53:44.566Z,10.27
2022-10-18T06:56:20.077Z,11.85
2022-10-18T06:58:47.165Z,10.68
2022-10-18T07:01:16.057Z,10.63
2022-10-18T07:03:43.383Z,11.07
2022-10-18T07:06:11.811Z,11.85
2022-10-18T07:08:39.173Z,11.15
2022-10-18T07:11:06.854Z,11.95
2022-10-18T07:13:33.929Z,12.13
2022-10-18T07:16:14.308Z,12.65
2022-10-18T07:18:46.996Z,12.45
2022-10-18T07:21:15.656Z,12.05
2022-10-18T07:23:45.974Z,11.95
2022-10-18T07:26:33.512Z,12.77
2022-10-18T07:29:01.394Z,12.52
2022-10-18T07:31:29.183Z,12.55
2022-10-18T07:33:55.870Z,11.73
2022-10-18T07:36:22.765Z,13.38
2022-10-18T07:38:49.923Z,13.57
2022-10-18T07:41:16.620Z,13.02
2022-10-18T07:43:45.809Z,12.77
2022-10-18T07:46:12.873Z,13.38
2022-10-18T07:48:39.649Z,14.52
2022-10-18T07:51:06.505Z,13.45
2022-10-18T07:53:34.590Z,14.98
2022-10-18T07:56:05.803Z,15.25
2022-10-18T07:58:36.688Z,15.18
2022-10-18T08:01:04.673Z,15.30
2022-10-18T08:03:31.321Z,15.07
2022-10-18T08:06:01.086Z,16.20
2022-10-18T08:08:28.320Z,17.02
2022-10-18T08:10:55.625Z,15.40
2022-10-18T08:13:23.645Z,15.40
2022-10-18T08:15:50.422Z,16.67
2022-10-18T08:18:17.163Z,16.63
2022-10-18T08:20:45.597Z,16.67
2022-10-18T08:23:12.643Z,17.15
2022-10-18T08:25:39.831Z,18.17
2022-10-18T08:28:06.880Z,16.70
2022-10-18T08:30:34.916Z,17.42
2022-10-18T08:33:02.184Z,17.08
2022-10-18T08:35:28.828Z,17.60
2022-10-18T08:37:55.606Z,17.25
2022-10-18T08:40:22.491Z,18.30
2022-10-18T08:43:21.417Z,17.52
2022-10-18T08:45:49.903Z,18.45
2022-10-18T08:48:21.846Z,17.30
2022-10-18T08:50:49.925Z,17.63
2022-10-18T08:53:39.976Z,18.02
2022-10-18T08:56:18.790Z,18.73
2022-10-18T08:58:45.491Z,19.45
2022-10-18T09:01:15.586Z,20.75
2022-10-18T09:04:03.516Z,18.95
2022-10-18T09:06:39.618Z,18.63
2022-10-18T09:09:09.164Z,18.55
2022-10-18T09:12:01.851Z,19.48
2022-10-18T09:14:31.952Z,18.35
2022-10-18T09:17:08.316Z,17.73
2022-10-18T09:20:04.283Z,17.33
2022-10-18T09:22:51.114Z,17.52
2022-10-18T09:25:32.712Z,16.90
2022-10-18T09:28:15.619Z,17.02
2022-10-18T09:30:52.298Z,17.42
2022-10-18T09:33:39.260Z,16.35
2022-10-18T09:36:14.393Z,17.48
2022-10-18T09:38:44.837Z,17.60
2022-10-18T09:41:34.763Z,16.63
2022-10-18T09:44:47.753Z,18.55
2022-10-18T09:47:23.115Z,17.35
2022-10-18T09:49:55.144Z,17.40
2022-10-18T09:52:52.417Z,18.50
2022-10-18T09:55:23.036Z,17.35
2022-10-18T09:57:55.809Z,16.67
2022-10-18T10:00:32.208Z,17.05
2022-10-18T10:03:00.704Z,16.95
2022-10-18T10:05:27.502Z,18.60
2022-10-18T10:07:59.799Z,16.73
2022-10-18T10:10:29.459Z,16.23
2022-10-18T10:13:07.181Z,16.73
2022-10-18T10:15:38.236Z,15.55
2022-10-18T10:18:19.838Z,15.55
2022-10-18T10:20:56.194Z,16.08
2022-10-18T10:23:29.974Z,15.18
2022-10-18T10:26:06.253Z,16.70
2022-10-18T10:28:39.699Z,15.90
2022-10-18T10:31:24.705Z,16.80
2022-10-18T10:34:19.898Z,17.65
2022-10-18T10:36:48.826Z,16.75
2022-10-18T10:39:18.881Z,16.20
2022-10-18T10:41:53.441Z,17.20
2022-10-18T10:44:22.572Z,15.18
2022-10-18T10:46:50.632Z,14.77
2022-10-18T10:49:41.227Z,13.80
2022-10-18T10:52:36.619Z,14.63
2022-10-18T10:55:30.395Z,14.65
2022-10-18T10:57:52.464Z,13.95
2022-10-18T11:00:41.934Z,12.73
2022-10-18T11:03:28.477Z,11.73
2022-10-18T11:05:57.742Z,12.57
2022-10-18T11:08:33.133Z,12.70
2022-10-18T11:11:06.173Z,12.30
2022-10-18T11:13:45.597Z,12.57
2022-10-18T11:16:26.525Z,11.80
2022-10-18T11:18:55.080Z,11.55
2022-10-18T11:21:30.808Z,11.82
2022-10-18T11:24:00.196Z,10.40
2022-10-18T11:26:53.853Z,11.90
2022-10-18T11:29:51.448Z,10.20
2022-10-18T11:32:18.896Z,10.15
2022-10-18T11:34:55.217Z,10.55
2022-10-18T11:37:34.702Z,9.50
2022-10-18T11:40:45.775Z,9.23
2022-10-18T11:43:57.079Z,8.95
2022-10-18T11:46:48.044Z,8.45
2022-10-18T11:49:43.283Z,8.10
2022-10-18T11:52:29.644Z,6.78
2022-10-18T11:55:18.345Z,5.85
2022-10-18T11:57:51.653Z,5.47
2022-10-18T12:00:33.560Z,6.75
2022-10-18T12:03:15.425Z,7.13
2022-10-18T12:05:44.663Z,7.40
2022-10-18T12:08:41.816Z,6.22
2022-10-18T12:11:16.661Z,7.00
2022-10-18T12:13:54.470Z,6.43
2022-10-18T12:16:45.437Z,6.78
2022-10-18T12:19:29.986Z,6.97
2022-10-18T12:21:58.124Z,6.03
2022-10-18T12:24:28.955Z,6.65
2022-10-18T12:26:59.425Z,6.38
2022-10-18T12:29:50.519Z,7.43
2022-10-18T12:32:30.136Z,7.40
2022-10-18T12:35:06.260Z,6.40
2022-10-18T12:37:54.625Z,6.45
2022-10-18T12:40:24.699Z,6.80
2022-10-18T12:42:52.460Z,6.57
2022-10-18T12:45:26.782Z,4.75
2022-10-18T12:47:54.418Z,5.25
2022-10-18T12:50:24.082Z,5.05
2022-10-18T12:53:17.154Z,5.35
2022-10-18T12:55:49.957Z,5.05
2022-10-18T12:58:23.089Z,5.78
2022-10-18T13:00:49.716Z,4.85
2022-10-18T13:03:17.264Z,4.80
2022-10-18T13:05:53.573Z,5.13
2022-10-18T13:08:38.360Z,5.13
2022-10-18T13:11:08.031Z,5.45
2022-10-18T13:13:53.693Z,4.40
2022-10-18T13:16:23.641Z,4.85
2022-10-18T13:18:55.317Z,5.07
2022-10-18T13:21:40.649Z,4.60
2022-10-18T13:24:44.354Z,5.43
2022-10-18T13:27:36.227Z,5.28
2022-10-18T13:30:12.580Z,5.32
2022-10-18T13:32:52.841Z,5.35
2022-10-18T13:35:38.191Z,5.22
2022-10-18T13:38:06.231Z,5.60
2022-10-18T13:40:32.983Z,5.10
2022-10-18T13:43:37.816Z,4.90
2022-10-18T13:46:04.557Z,3.47
2022-10-18T13:48:31.574Z,3.08
2022-10-18T13:51:12.242Z,2.70
2022-10-18T13:53:57.039Z,2.53
2022-10-18T13:56:37.822Z,2.33
2022-10-18T13:59:39.882Z,2.42
2022-10-18T14:02:50.528Z,2.60
2022-10-18T14:05:57.845Z,2.45
2022-10-18T14:08:31.724Z,2.30
2022-10-18T14:11:21.647Z,2.65
2022-10-18T14:13:54.579Z,2.70
2022-10-18T14:16:30.385Z,1.85
2022-10-18T14:19:05.112Z,1.90
2022-10-18T14:21:36.235Z,1.83
2022-10-18T14:24:03.869Z,2.50
2022-10-18T14:26:32.889Z,1.35
2022-10-18T14:29:06.671Z,1.88
2022-10-18T14:31:34.799Z,1.65
2022-10-18T14:34:01.557Z,1.60
2022-10-18T14:36:34.525Z,1.60
2022-10-18T14:39:06.361Z,1.27
2022-10-18T14:41:43.159Z,1.30
2022-10-18T14:44:16.012Z,1.50
2022-10-18T14:46:59.496Z,1.58
2022-10-18T14:49:26.394Z,1.25
2022-10-18T14:51:58.573Z,1.15
2022-10-18T14:54:33.730Z,1.40
2022-10-18T14:57:07.022Z,1.00
2022-10-18T14:59:43.432Z,1.25
2022-10-18T15:02:14.385Z,1.30
2022-10-18T15:04:44.480Z,1.42
2022-10-18T15:07:16.948Z,1.20
2022-10-18T15:09:44.621Z,1.30
2022-10-18T15:12:14.140Z,1.50
2022-10-18T15:14:41.961Z,1.23
2022-10-18T15:17:15.091Z,0.90
2022-10-18T15:19:55.495Z,1.65
2022-10-18T15:22:31.642Z,1.23
2022-10-18T15:25:31.599Z,1.50
2022-10-18T15:28:00.555Z,1.00
2022-10-18T15:30:28.870Z,1.35
2022-10-18T15:33:03.161Z,1.20
2022-10-18T15:35:34.764Z,1.27
2022-10-18T15:38:27.207Z,1.13
2022-10-18T15:40:54.476Z,1.13
2022-10-18T15:43:27.076Z,1.20
2022-10-18T15:45:58.737Z,1.40
2022-10-18T15:48:34.661Z,1.17
2022-10-18T15:51:07.756Z,1.10
2022-10-18T15:53:45.310Z,0.90
2022-10-18T15:56:32.031Z,1.20
2022-10-18T15:59:03.507Z,1.10
2022-10-18T16:01:37.710Z,1.08
2022-10-18T16:04:12.975Z,1.23
2022-10-18T16:06:40.053Z,1.85
2022-10-18T16:09:09.779Z,1.50
2022-10-18T16:11:36.750Z,1.30
2022-10-18T16:14:03.909Z,1.70
2022-10-18T16:16:30.643Z,1.30
2022-10-18T16:18:58.062Z,1.80
2022-10-18T16:21:34.750Z,1.42
2022-10-18T16:24:01.738Z,2.58
2022-10-18T16:26:28.909Z,1.80
2022-10-18T16:28:59.498Z,2.13
2022-10-18T16:31:28.892Z,1.95
2022-10-18T16:33:56.139Z,1.98
2022-10-18T16:36:33.307Z,1.85
2022-10-18T16:39:06.202Z,1.80
2022-10-18T16:41:32.877Z,1.80
2022-10-18T16:43:59.562Z,1.60
2022-10-18T16:46:31.791Z,1.80
2022-10-18T16:49:00.298Z,2.20
2022-10-18T16:51:27.113Z,2.20
2022-10-18T16:53:54.351Z,1.50
2022-10-18T16:56:28.271Z,2.17
2022-10-18T16:59:00.290Z,2.42
2022-10-18T17:01:27.767Z,2.63
2022-10-18T17:03:55.304Z,2.83
2022-10-18T17:06:29.705Z,2.65
2022-10-18T17:08:57.060Z,1.90
2022-10-18T17:11:26.778Z,2.38
2022-10-18T17:13:53.691Z,2.92
2022-10-18T17:16:22.345Z,2.22
2022-10-18T17:18:50.129Z,3.15
2022-10-18T17:21:16.915Z,3.10
2022-10-18T17:23:46.041Z,3.05
2022-10-18T17:26:30.264Z,4.13
2022-10-18T17:29:00.298Z,3.92
2022-10-18T17:31:29.541Z,3.40
2022-10-18T17:33:58.395Z,4.50
2022-10-18T17:36:25.514Z,4.68
2022-10-18T17:38:55.780Z,4.00
2022-10-18T17:41:22.778Z,4.35
2022-10-18T17:43:49.490Z,4.05
2022-10-18T17:46:17.787Z,4.43
2022-10-18T17:48:44.730Z,4.72
2022-10-18T17:51:13.616Z,4.55
2022-10-18T17:53:42.170Z,5.63
2022-10-18T17:56:10.454Z,5.95
2022-10-18T17:58:37.231Z,5.40
2022-10-18T18:01:16.315Z,5.90
2022-10-18T18:03:43.672Z,6.18
2022-10-18T18:06:31.295Z,6.03
2022-10-18T18:08:59.888Z,5.90
2022-10-18T18:11:27.283Z,7.10
2022-10-18T18:13:59.079Z,6.72
2022-10-18T18:16:28.468Z,8.43
2022-10-18T18:18:57.455Z,8.15
2022-10-18T18:21:26.603Z,9.43
2022-10-18T18:23:56.161Z,8.75
2022-10-18T18:26:24.725Z,8.80
2022-10-18T18:28:51.924Z,9.55
2022-10-18T18:31:39.971Z,8.57
2022-10-18T18:34:09.623Z,9.10
2022-10-18T18:36:36.340Z,9.43
2022-10-18T18:39:05.766Z,9.07
2022-10-18T18:41:32.962Z,9.10
2022-10-18T18:44:01.945Z,8.52
2022-10-18T18:46:33.128Z,7.68
2022-10-18T18:49:00.134Z,8.27
2022-10-18T18:51:26.971Z,7.28
2022-10-18T18:53:53.615Z,7.18
2022-10-18T18:56:22.453Z,6.25
2022-10-18T18:58:49.351Z,6.20
2022-10-18T19:01:19.926Z,6.28
2022-10-18T19:03:48.711Z,6.45
2022-10-18T19:06:19.597Z,6.03
2022-10-18T19:08:46.812Z,7.22
2022-10-18T19:11:18.273Z,6.63
2022-10-18T19:13:46.496Z,5.53
2022-10-18T19:16:25.231Z,4.80
2022-10-18T19:18:57.363Z,5.10
2022-10-18T19:21:26.048Z,5.07
2022-10-18T19:23:56.039Z,5.20
2022-10-18T19:26:45.693Z,4.93
2022-10-18T19:29:15.086Z,5.53
2022-10-18T19:31:44.849Z,5.25
2022-10-18T19:34:13.794Z,5.47
2022-10-18T19:36:42.895Z,5.30
2022-10-18T19:39:14.739Z,4.57
2022-10-18T19:41:46.182Z,4.82
2022-10-18T19:44:12.838Z,4.90
2022-10-18T19:46:39.692Z,4.68
2022-10-18T19:49:06.515Z,5.25
2022-10-18T19:51:33.392Z,4.85
2022-10-18T19:54:00.155Z,4.65
2022-10-18T19:56:27.614Z,4.40
2022-10-18T19:58:56.003Z,4.32
2022-10-18T20:01:23.828Z,4.90
2022-10-18T20:03:50.540Z,4.60
2022-10-18T20:06:17.536Z,4.70
2022-10-18T20:08:46.387Z,4.57
2022-10-18T20:11:17.837Z,4.88
2022-10-18T20:13:44.565Z,5.05
2022-10-18T20:16:14.636Z,4.90
2022-10-18T20:18:43.255Z,6.22
2022-10-18T20:21:13.647Z,5.10
2022-10-18T20:23:42.669Z,4.68
2022-10-18T20:26:18.166Z,5.57
2022-10-18T20:28:58.108Z,5.28
2022-10-18T20:31:30.416Z,4.72
2022-10-18T20:33:59.362Z,5.03
2022-10-18T20:36:28.522Z,4.63
2022-10-18T20:38:57.351Z,5.18
2022-10-18T20:41:32.454Z,5.35
2022-10-18T20:44:01.392Z,5.90
2022-10-18T20:46:33.551Z,4.78
2022-10-18T20:49:07.624Z,4.88
2022-10-18T20:51:35.350Z,4.90
2022-10-18T20:56:35.327Z,4.70
2022-10-18T20:59:02.806Z,4.90
2022-10-18T21:01:31.623Z,4.75
2022-10-18T21:04:00.905Z,4.90
2022-10-18T21:06:33.010Z,4.70
2022-10-18T21:09:01.593Z,5.07
2022-10-18T21:11:29.573Z,4.43
2022-10-18T21:14:00.091Z,5.15
2022-10-18T21:16:28.184Z,4.10
2022-10-18T21:18:55.081Z,4.70
2022-10-18T21:21:25.386Z,5.28
2022-10-18T21:23:52.607Z,4.80
2022-10-18T21:26:27.011Z,5.00
2022-10-18T21:28:57.745Z,5.43
2022-10-18T21:31:29.504Z,5.25
2022-10-18T21:33:58.007Z,4.88
2022-10-18T21:36:25.286Z,5.30
2022-10-18T21:38:52.477Z,5.50
2022-10-18T21:41:20.483Z,5.63
2022-10-18T21:43:49.110Z,5.63
2022-10-18T21:46:17.633Z,5.82
2022-10-18T21:48:49.340Z,5.95
2022-10-18T21:51:18.946Z,5.78
2022-10-18T21:53:47.440Z,5.97
2022-10-18T21:56:19.826Z,5.95
2022-10-18T21:58:46.695Z,5.78
2022-10-18T22:01:21.072Z,6.13
2022-10-18T22:03:49.539Z,5.65
2022-10-18T22:06:17.142Z,5.78
2022-10-18T22:08:52.594Z,5.45
2022-10-18T22:11:23.148Z,5.50
2022-10-18T22:13:49.856Z,5.85
2022-10-18T22:16:17.144Z,5.70
2022-10-18T22:18:44.978Z,6.20
2022-10-18T22:21:13.321Z,6.30
2022-10-18T22:23:41.376Z,6.78
2022-10-18T22:26:11.453Z,7.05
2022-10-18T22:28:39.487Z,6.88
2022-10-18T22:31:07.163Z,6.32
2022-10-18T22:33:34.093Z,6.28
2022-10-18T22:36:00.918Z,7.32
2022-10-18T22:38:27.775Z,6.28
2022-10-18T22:40:55.644Z,6.57
2022-10-18T22:43:22.274Z,7.30
2022-10-18T22:45:48.969Z,7.85
2022-10-18T22:48:15.607Z,7.20
2022-10-18T22:50:42.428Z,6.88
2022-10-18T22:53:09.161Z,7.25
2022-10-18T22:55:35.802Z,6.93
2022-10-18T22:58:02.798Z,7.97
2022-10-18T23:00:29.520Z,7.70
2022-10-18T23:02:56.175Z,7.80
2022-10-18T23:05:22.818Z,8.60
2022-10-18T23:07:49.645Z,8.68
2022-10-18T23:10:16.827Z,8.40
2022-10-18T23:12:44.549Z,7.78
2022-10-18T23:15:12.648Z,6.60
2022-10-18T23:17:39.406Z,7.63
2022-10-18T23:20:06.418Z,7.40
2022-10-18T23:22:33.426Z,8.00
2022-10-18T23:25:02.212Z,7.65
2022-10-18T23:27:29.848Z,7.25
2022-10-18T23:29:56.662Z,8.20
2022-10-18T23:32:23.323Z,8.20
2022-10-18T23:34:49.971Z,7.68
2022-10-18T23:37:16.659Z,7.95
2022-10-18T23:39:43.280Z,7.57
2022-10-18T23:42:09.921Z,7.15
2022-10-18T23:44:36.728Z,7.43
2022-10-18T23:47:03.397Z,6.97
2022-10-18T23:49:30.053Z,6.93
2022-10-18T23:51:56.736Z,7.38
2022-10-18T23:54:23.405Z,7.88
2022-10-18T23:56:50.111Z,6.93
2022-10-18T23:59:16.816Z,6.82
